sensor_id;sensor_type;location;lat;lon;timestamp;P1;durP1;ratioP1;P2;durP2;ratioP2
5499;SDS011;2772;42.700;23.304;2024-01-15T00:01:32;201.10;;;77.97;;
5499;SDS011;2772;42.700;23.304;2024-01-15T00:04:00;217.57;;;85.67;;
5499;SDS011;2772;42.700;23.304;2024-01-15T00:06:27;230.33;;;84.23;;
5499;SDS011;2772;42.700;23.304;2024-01-15T00:08:53;187.20;;;71.80;;
5499;SDS011;2772;42.700;23.304;2024-01-15T00:11:20;189.33;;;74.13;;
5499;SDS011;2772;42.700;23.304;2024-01-15T00:13:47;198.27;;;77.30;;
5499;SDS011;2772;42.700;23.304;2024-01-15T00:16:13;201.03;;;80.83;;
5499;SDS011;2772;42.700;23.304;2024-01-15T00:18:40;212.50;;;80.57;;
5499;SDS011;2772;42.700;23.304;2024-01-15T00:21:08;216.63;;;81.40;;
5499;SDS011;2772;42.700;23.304;2024-01-15T00:23:36;201.97;;;82.17;;
5499;SDS011;2772;42.700;23.304;2024-01-15T00:26:02;216.40;;;82.83;;
5499;SDS011;2772;42.700;23.304;2024-01-15T00:28:29;196.53;;;76.37;;
5499;SDS011;2772;42.700;23.304;2024-01-15T00:30:56;214.37;;;74.77;;
5499;SDS011;2772;42.700;23.304;2024-01-15T00:33:23;196.23;;;72.47;;
5499;SDS011;2772;42.700;23.304;2024-01-15T00:35:49;182.50;;;70.67;;
5499;SDS011;2772;42.700;23.304;2024-01-15T00:38:17;174.77;;;70.37;;
5499;SDS011;2772;42.700;23.304;2024-01-15T00:40:45;169.60;;;63.93;;
5499;SDS011;2772;42.700;23.304;2024-01-15T00:43:12;171.60;;;66.37;;
5499;SDS011;2772;42.700;23.304;2024-01-15T00:45:39;155.93;;;65.40;;
5499;SDS011;2772;42.700;23.304;2024-01-15T00:48:07;183.13;;;71.60;;
5499;SDS011;2772;42.700;23.304;2024-01-15T00:50:34;182.23;;;67.93;;
5499;SDS011;2772;42.700;23.304;2024-01-15T00:53:00;175.43;;;65.27;;
5499;SDS011;2772;42.700;23.304;2024-01-15T00:55:29;157.73;;;62.33;;
5499;SDS011;2772;42.700;23.304;2024-01-15T00:57:56;159.23;;;61.53;;
5499;SDS011;2772;42.700;23.304;2024-01-15T01:00:22;162.90;;;64.17;;
5499;SDS011;2772;42.700;23.304;2024-01-15T01:02:49;178.97;;;63.50;;
5499;SDS011;2772;42.700;23.304;2024-01-15T01:05:16;151.23;;;61.30;;
5499;SDS011;2772;42.700;23.304;2024-01-15T01:07:42;152.20;;;59.67;;
5499;SDS011;2772;42.700;23.304;2024-01-15T01:10:09;155.30;;;60.73;;
5499;SDS011;2772;42.700;23.304;2024-01-15T01:12:37;154.70;;;58.83;;
5499;SDS011;2772;42.700;23.304;2024-01-15T01:15:04;150.53;;;60.07;;
5499;SDS011;2772;42.700;23.304;2024-01-15T01:17:32;151.43;;;62.07;;
5499;SDS011;2772;42.700;23.304;2024-01-15T01:19:59;159.43;;;60.23;;
5499;SDS011;2772;42.700;23.304;2024-01-15T01:22:29;133.03;;;54.53;;
5499;SDS011;2772;42.700;23.304;2024-01-15T01:24:55;125.23;;;52.20;;
5499;SDS011;2772;42.700;23.304;2024-01-15T01:27:22;144.13;;;56.83;;
5499;SDS011;2772;42.700;23.304;2024-01-15T01:29:50;133.40;;;56.20;;
5499;SDS011;2772;42.700;23.304;2024-01-15T01:32:18;131.07;;;54.53;;
5499;SDS011;2772;42.700;23.304;2024-01-15T01:34:44;139.43;;;54.10;;
5499;SDS011;2772;42.700;23.304;2024-01-15T01:37:11;134.93;;;55.60;;
5499;SDS011;2772;42.700;23.304;2024-01-15T01:39:39;163.73;;;64.40;;
5499;SDS011;2772;42.700;23.304;2024-01-15T01:42:05;147.00;;;58.50;;
5499;SDS011;2772;42.700;23.304;2024-01-15T01:44:32;146.77;;;60.13;;
5499;SDS011;2772;42.700;23.304;2024-01-15T01:47:01;154.83;;;62.00;;
5499;SDS011;2772;42.700;23.304;2024-01-15T01:49:28;147.00;;;59.17;;
5499;SDS011;2772;42.700;23.304;2024-01-15T01:51:55;143.47;;;57.53;;
5499;SDS011;2772;42.700;23.304;2024-01-15T01:54:23;150.67;;;59.10;;
5499;SDS011;2772;42.700;23.304;2024-01-15T01:56:51;152.90;;;61.77;;
5499;SDS011;2772;42.700;23.304;2024-01-15T01:59:18;149.93;;;60.33;;
5499;SDS011;2772;42.700;23.304;2024-01-15T02:01:46;158.57;;;60.27;;
5499;SDS011;2772;42.700;23.304;2024-01-15T02:04:16;157.57;;;59.90;;
5499;SDS011;2772;42.700;23.304;2024-01-15T02:06:43;161.17;;;62.77;;
5499;SDS011;2772;42.700;23.304;2024-01-15T02:09:10;159.60;;;60.00;;
5499;SDS011;2772;42.700;23.304;2024-01-15T02:11:40;140.60;;;57.40;;
5499;SDS011;2772;42.700;23.304;2024-01-15T02:14:07;164.53;;;59.27;;
5499;SDS011;2772;42.700;23.304;2024-01-15T02:16:34;139.67;;;57.37;;
5499;SDS011;2772;42.700;23.304;2024-01-15T02:19:01;153.53;;;59.70;;
5499;SDS011;2772;42.700;23.304;2024-01-15T02:21:29;141.60;;;57.67;;
5499;SDS011;2772;42.700;23.304;2024-01-15T02:23:58;151.87;;;58.90;;
5499;SDS011;2772;42.700;23.304;2024-01-15T02:26:25;171.63;;;66.93;;
5499;SDS011;2772;42.700;23.304;2024-01-15T02:28:55;167.47;;;63.67;;
5499;SDS011;2772;42.700;23.304;2024-01-15T02:31:21;202.20;;;71.70;;
5499;SDS011;2772;42.700;23.304;2024-01-15T02:33:48;207.60;;;82.57;;
5499;SDS011;2772;42.700;23.304;2024-01-15T02:36:15;192.13;;;77.77;;
5499;SDS011;2772;42.700;23.304;2024-01-15T02:38:42;193.07;;;72.17;;
5499;SDS011;2772;42.700;23.304;2024-01-15T02:41:10;170.10;;;65.10;;
5499;SDS011;2772;42.700;23.304;2024-01-15T02:43:39;180.43;;;68.67;;
5499;SDS011;2772;42.700;23.304;2024-01-15T02:46:05;159.87;;;62.30;;
5499;SDS011;2772;42.700;23.304;2024-01-15T02:48:32;168.07;;;67.63;;
5499;SDS011;2772;42.700;23.304;2024-01-15T02:50:59;176.13;;;64.90;;
5499;SDS011;2772;42.700;23.304;2024-01-15T02:53:27;160.80;;;63.27;;
5499;SDS011;2772;42.700;23.304;2024-01-15T02:55:54;174.53;;;63.73;;
5499;SDS011;2772;42.700;23.304;2024-01-15T02:58:22;174.83;;;61.30;;
5499;SDS011;2772;42.700;23.304;2024-01-15T03:00:49;163.67;;;60.93;;
5499;SDS011;2772;42.700;23.304;2024-01-15T03:03:15;171.40;;;61.73;;
5499;SDS011;2772;42.700;23.304;2024-01-15T03:05:42;152.00;;;62.43;;
5499;SDS011;2772;42.700;23.304;2024-01-15T03:08:09;163.27;;;60.77;;
5499;SDS011;2772;42.700;23.304;2024-01-15T03:10:35;160.17;;;62.37;;
5499;SDS011;2772;42.700;23.304;2024-01-15T03:13:02;171.87;;;64.40;;
5499;SDS011;2772;42.700;23.304;2024-01-15T03:15:31;152.50;;;55.57;;
5499;SDS011;2772;42.700;23.304;2024-01-15T03:17:57;146.97;;;56.80;;
5499;SDS011;2772;42.700;23.304;2024-01-15T03:20:24;146.63;;;57.23;;
5499;SDS011;2772;42.700;23.304;2024-01-15T03:22:52;164.00;;;57.33;;
5499;SDS011;2772;42.700;23.304;2024-01-15T03:25:18;154.67;;;56.40;;
5499;SDS011;2772;42.700;23.304;2024-01-15T03:27:45;145.03;;;54.33;;
5499;SDS011;2772;42.700;23.304;2024-01-15T03:30:12;157.33;;;54.27;;
5499;SDS011;2772;42.700;23.304;2024-01-15T03:32:41;140.13;;;52.50;;
5499;SDS011;2772;42.700;23.304;2024-01-15T03:35:08;134.37;;;50.53;;
5499;SDS011;2772;42.700;23.304;2024-01-15T03:37:35;135.73;;;52.40;;
5499;SDS011;2772;42.700;23.304;2024-01-15T03:40:01;135.40;;;53.80;;
5499;SDS011;2772;42.700;23.304;2024-01-15T03:42:28;144.87;;;55.10;;
5499;SDS011;2772;42.700;23.304;2024-01-15T03:44:55;140.03;;;53.57;;
5499;SDS011;2772;42.700;23.304;2024-01-15T03:47:22;135.00;;;50.90;;
5499;SDS011;2772;42.700;23.304;2024-01-15T03:49:51;119.80;;;48.60;;
5499;SDS011;2772;42.700;23.304;2024-01-15T03:52:17;143.97;;;49.20;;
5499;SDS011;2772;42.700;23.304;2024-01-15T03:54:44;122.93;;;51.03;;
5499;SDS011;2772;42.700;23.304;2024-01-15T03:57:11;86.93;;;37.53;;
5499;SDS011;2772;42.700;23.304;2024-01-15T03:59:37;83.47;;;36.87;;
5499;SDS011;2772;42.700;23.304;2024-01-15T04:02:06;89.77;;;34.90;;
5499;SDS011;2772;42.700;23.304;2024-01-15T04:04:33;87.40;;;35.77;;
5499;SDS011;2772;42.700;23.304;2024-01-15T04:07:01;88.10;;;36.60;;
5499;SDS011;2772;42.700;23.304;2024-01-15T04:09:29;84.53;;;36.70;;
5499;SDS011;2772;42.700;23.304;2024-01-15T04:11:55;84.93;;;35.70;;
5499;SDS011;2772;42.700;23.304;2024-01-15T04:14:22;81.83;;;32.87;;
5499;SDS011;2772;42.700;23.304;2024-01-15T04:16:49;85.87;;;35.70;;
5499;SDS011;2772;42.700;23.304;2024-01-15T04:19:16;90.00;;;37.30;;
5499;SDS011;2772;42.700;23.304;2024-01-15T04:21:46;91.03;;;35.67;;
5499;SDS011;2772;42.700;23.304;2024-01-15T04:24:14;89.37;;;36.27;;
5499;SDS011;2772;42.700;23.304;2024-01-15T04:26:43;80.20;;;34.00;;
5499;SDS011;2772;42.700;23.304;2024-01-15T04:29:09;79.60;;;32.63;;
5499;SDS011;2772;42.700;23.304;2024-01-15T04:31:36;101.07;;;38.53;;
5499;SDS011;2772;42.700;23.304;2024-01-15T04:34:03;88.57;;;36.87;;
5499;SDS011;2772;42.700;23.304;2024-01-15T04:36:29;99.50;;;41.77;;
5499;SDS011;2772;42.700;23.304;2024-01-15T04:38:56;119.70;;;43.60;;
5499;SDS011;2772;42.700;23.304;2024-01-15T04:41:24;110.50;;;43.20;;
5499;SDS011;2772;42.700;23.304;2024-01-15T04:43:51;118.07;;;46.20;;
5499;SDS011;2772;42.700;23.304;2024-01-15T04:46:18;117.43;;;46.00;;
5499;SDS011;2772;42.700;23.304;2024-01-15T04:48:44;112.43;;;46.20;;
5499;SDS011;2772;42.700;23.304;2024-01-15T04:51:11;119.93;;;44.30;;
5499;SDS011;2772;42.700;23.304;2024-01-15T04:53:38;115.70;;;47.67;;
5499;SDS011;2772;42.700;23.304;2024-01-15T04:56:05;116.33;;;49.57;;
5499;SDS011;2772;42.700;23.304;2024-01-15T04:58:33;138.33;;;51.80;;
5499;SDS011;2772;42.700;23.304;2024-01-15T05:01:00;135.50;;;52.77;;
5499;SDS011;2772;42.700;23.304;2024-01-15T05:03:26;141.30;;;52.20;;
5499;SDS011;2772;42.700;23.304;2024-01-15T05:05:53;141.30;;;54.00;;
5499;SDS011;2772;42.700;23.304;2024-01-15T05:08:20;140.57;;;51.53;;
5499;SDS011;2772;42.700;23.304;2024-01-15T05:10:46;123.47;;;49.93;;
5499;SDS011;2772;42.700;23.304;2024-01-15T05:13:13;136.97;;;50.70;;
5499;SDS011;2772;42.700;23.304;2024-01-15T05:15:41;108.37;;;46.37;;
5499;SDS011;2772;42.700;23.304;2024-01-15T05:18:08;121.97;;;47.27;;
5499;SDS011;2772;42.700;23.304;2024-01-15T05:20:35;123.93;;;47.97;;
5499;SDS011;2772;42.700;23.304;2024-01-15T05:23:01;109.67;;;44.20;;
5499;SDS011;2772;42.700;23.304;2024-01-15T05:25:28;108.60;;;44.27;;
5499;SDS011;2772;42.700;23.304;2024-01-15T05:27:55;118.60;;;46.80;;
5499;SDS011;2772;42.700;23.304;2024-01-15T05:30:22;111.30;;;46.77;;
5499;SDS011;2772;42.700;23.304;2024-01-15T05:32:50;110.87;;;45.00;;
5499;SDS011;2772;42.700;23.304;2024-01-15T05:35:16;114.37;;;46.63;;
5499;SDS011;2772;42.700;23.304;2024-01-15T05:37:43;105.47;;;46.10;;
5499;SDS011;2772;42.700;23.304;2024-01-15T05:40:11;112.10;;;45.23;;
5499;SDS011;2772;42.700;23.304;2024-01-15T05:42:38;111.40;;;43.63;;
5499;SDS011;2772;42.700;23.304;2024-01-15T05:45:05;107.10;;;44.53;;
5499;SDS011;2772;42.700;23.304;2024-01-15T05:47:33;116.77;;;45.30;;
5499;SDS011;2772;42.700;23.304;2024-01-15T05:50:01;106.70;;;43.73;;
5499;SDS011;2772;42.700;23.304;2024-01-15T05:52:28;108.87;;;43.90;;
5499;SDS011;2772;42.700;23.304;2024-01-15T05:54:55;110.43;;;42.87;;
5499;SDS011;2772;42.700;23.304;2024-01-15T05:57:21;111.77;;;45.37;;
5499;SDS011;2772;42.700;23.304;2024-01-15T05:59:48;114.40;;;45.93;;
5499;SDS011;2772;42.700;23.304;2024-01-15T06:02:15;111.80;;;46.03;;
5499;SDS011;2772;42.700;23.304;2024-01-15T06:04:44;128.93;;;49.40;;
5499;SDS011;2772;42.700;23.304;2024-01-15T06:07:12;131.77;;;52.50;;
5499;SDS011;2772;42.700;23.304;2024-01-15T06:09:39;147.97;;;54.07;;
5499;SDS011;2772;42.700;23.304;2024-01-15T06:12:06;145.33;;;53.53;;
5499;SDS011;2772;42.700;23.304;2024-01-15T06:14:33;132.80;;;49.73;;
5499;SDS011;2772;42.700;23.304;2024-01-15T06:17:00;124.40;;;49.50;;
5499;SDS011;2772;42.700;23.304;2024-01-15T06:19:27;133.60;;;51.17;;
5499;SDS011;2772;42.700;23.304;2024-01-15T06:21:54;131.53;;;51.37;;
5499;SDS011;2772;42.700;23.304;2024-01-15T06:24:22;114.97;;;47.57;;
5499;SDS011;2772;42.700;23.304;2024-01-15T06:26:49;114.00;;;48.23;;
5499;SDS011;2772;42.700;23.304;2024-01-15T06:29:16;114.77;;;47.47;;
5499;SDS011;2772;42.700;23.304;2024-01-15T06:31:43;126.97;;;49.00;;
5499;SDS011;2772;42.700;23.304;2024-01-15T06:34:09;124.87;;;48.47;;
5499;SDS011;2772;42.700;23.304;2024-01-15T06:36:36;119.07;;;48.20;;
5499;SDS011;2772;42.700;23.304;2024-01-15T06:39:03;118.83;;;46.77;;
5499;SDS011;2772;42.700;23.304;2024-01-15T06:41:31;117.67;;;47.77;;
5499;SDS011;2772;42.700;23.304;2024-01-15T06:43:59;117.03;;;47.50;;
5499;SDS011;2772;42.700;23.304;2024-01-15T06:46:26;124.53;;;46.90;;
5499;SDS011;2772;42.700;23.304;2024-01-15T06:48:53;113.07;;;46.27;;
5499;SDS011;2772;42.700;23.304;2024-01-15T06:51:27;109.97;;;44.60;;
5499;SDS011;2772;42.700;23.304;2024-01-15T06:53:54;130.93;;;46.03;;
5499;SDS011;2772;42.700;23.304;2024-01-15T06:56:21;125.73;;;46.63;;
5499;SDS011;2772;42.700;23.304;2024-01-15T06:58:51;135.32;;;56.42;;
5499;SDS011;2772;42.700;23.304;2024-01-15T07:01:18;125.37;;;52.57;;
5499;SDS011;2772;42.700;23.304;2024-01-15T07:03:45;122.20;;;52.00;;
5499;SDS011;2772;42.700;23.304;2024-01-15T07:06:12;133.73;;;52.13;;
5499;SDS011;2772;42.700;23.304;2024-01-15T07:08:39;136.20;;;53.27;;
5499;SDS011;2772;42.700;23.304;2024-01-15T07:11:06;146.00;;;52.57;;
5499;SDS011;2772;42.700;23.304;2024-01-15T07:13:33;131.70;;;50.10;;
5499;SDS011;2772;42.700;23.304;2024-01-15T07:16:01;121.20;;;50.23;;
5499;SDS011;2772;42.700;23.304;2024-01-15T07:18:28;133.33;;;52.77;;
5499;SDS011;2772;42.700;23.304;2024-01-15T07:20:55;127.13;;;50.50;;
5499;SDS011;2772;42.700;23.304;2024-01-15T07:23:22;125.80;;;49.90;;
5499;SDS011;2772;42.700;23.304;2024-01-15T07:25:48;128.60;;;50.33;;
5499;SDS011;2772;42.700;23.304;2024-01-15T07:28:15;130.43;;;51.87;;
5499;SDS011;2772;42.700;23.304;2024-01-15T07:30:42;116.50;;;48.40;;
5499;SDS011;2772;42.700;23.304;2024-01-15T07:33:10;166.30;;;60.10;;
5499;SDS011;2772;42.700;23.304;2024-01-15T07:35:37;138.70;;;55.90;;
5499;SDS011;2772;42.700;23.304;2024-01-15T07:38:04;122.43;;;50.67;;
5499;SDS011;2772;42.700;23.304;2024-01-15T07:40:30;119.77;;;50.40;;
5499;SDS011;2772;42.700;23.304;2024-01-15T07:42:57;117.40;;;47.60;;
5499;SDS011;2772;42.700;23.304;2024-01-15T07:45:27;119.63;;;48.20;;
5499;SDS011;2772;42.700;23.304;2024-01-15T07:47:53;106.43;;;45.47;;
5499;SDS011;2772;42.700;23.304;2024-01-15T07:50:21;108.73;;;47.07;;
5499;SDS011;2772;42.700;23.304;2024-01-15T07:52:48;111.93;;;49.77;;
5499;SDS011;2772;42.700;23.304;2024-01-15T07:55:15;103.67;;;43.50;;
5499;SDS011;2772;42.700;23.304;2024-01-15T07:57:42;103.83;;;44.40;;
5499;SDS011;2772;42.700;23.304;2024-01-15T08:00:08;120.80;;;46.70;;
5499;SDS011;2772;42.700;23.304;2024-01-15T08:02:36;114.40;;;47.33;;
5499;SDS011;2772;42.700;23.304;2024-01-15T08:05:03;125.47;;;52.10;;
5499;SDS011;2772;42.700;23.304;2024-01-15T08:07:32;137.13;;;52.45;;
5499;SDS011;2772;42.700;23.304;2024-01-15T08:09:58;132.90;;;53.53;;
5499;SDS011;2772;42.700;23.304;2024-01-15T08:12:25;142.93;;;54.60;;
5499;SDS011;2772;42.700;23.304;2024-01-15T08:14:54;136.20;;;55.03;;
5499;SDS011;2772;42.700;23.304;2024-01-15T08:17:20;139.33;;;56.07;;
5499;SDS011;2772;42.700;23.304;2024-01-15T08:19:47;132.37;;;55.27;;
5499;SDS011;2772;42.700;23.304;2024-01-15T08:22:14;147.40;;;60.00;;
5499;SDS011;2772;42.700;23.304;2024-01-15T08:24:42;137.00;;;57.07;;
5499;SDS011;2772;42.700;23.304;2024-01-15T08:27:12;135.23;;;57.47;;
5499;SDS011;2772;42.700;23.304;2024-01-15T08:29:38;142.23;;;54.77;;
5499;SDS011;2772;42.700;23.304;2024-01-15T08:32:05;143.07;;;53.40;;
5499;SDS011;2772;42.700;23.304;2024-01-15T08:34:32;139.20;;;55.10;;
5499;SDS011;2772;42.700;23.304;2024-01-15T08:36:59;133.30;;;55.87;;
5499;SDS011;2772;42.700;23.304;2024-01-15T08:39:25;140.27;;;56.00;;
5499;SDS011;2772;42.700;23.304;2024-01-15T08:41:54;148.90;;;58.73;;
5499;SDS011;2772;42.700;23.304;2024-01-15T08:44:20;146.67;;;58.67;;
5499;SDS011;2772;42.700;23.304;2024-01-15T08:46:47;154.23;;;61.77;;
5499;SDS011;2772;42.700;23.304;2024-01-15T08:49:14;139.33;;;56.00;;
5499;SDS011;2772;42.700;23.304;2024-01-15T08:51:40;154.27;;;60.07;;
5499;SDS011;2772;42.700;23.304;2024-01-15T08:54:07;143.33;;;59.63;;
5499;SDS011;2772;42.700;23.304;2024-01-15T08:56:34;154.67;;;60.07;;
5499;SDS011;2772;42.700;23.304;2024-01-15T08:59:02;150.85;;;63.83;;
5499;SDS011;2772;42.700;23.304;2024-01-15T09:01:29;139.30;;;60.30;;
5499;SDS011;2772;42.700;23.304;2024-01-15T09:03:56;153.23;;;58.63;;
5499;SDS011;2772;42.700;23.304;2024-01-15T09:06:23;145.17;;;60.70;;
5499;SDS011;2772;42.700;23.304;2024-01-15T09:08:49;148.53;;;62.90;;
5499;SDS011;2772;42.700;23.304;2024-01-15T09:11:17;157.77;;;62.63;;
5499;SDS011;2772;42.700;23.304;2024-01-15T09:13:46;154.57;;;62.73;;
5499;SDS011;2772;42.700;23.304;2024-01-15T09:16:14;162.70;;;66.20;;
5499;SDS011;2772;42.700;23.304;2024-01-15T09:18:40;157.03;;;63.73;;
5499;SDS011;2772;42.700;23.304;2024-01-15T09:21:07;162.75;;;78.63;;
5499;SDS011;2772;42.700;23.304;2024-01-15T09:23:34;147.17;;;58.77;;
5499;SDS011;2772;42.700;23.304;2024-01-15T09:26:00;152.60;;;60.17;;
5499;SDS011;2772;42.700;23.304;2024-01-15T09:28:27;152.20;;;57.20;;
5499;SDS011;2772;42.700;23.304;2024-01-15T09:30:54;129.43;;;55.83;;
5499;SDS011;2772;42.700;23.304;2024-01-15T09:33:22;138.63;;;55.17;;
5499;SDS011;2772;42.700;23.304;2024-01-15T09:35:49;149.50;;;60.00;;
5499;SDS011;2772;42.700;23.304;2024-01-15T09:38:15;146.67;;;59.30;;
5499;SDS011;2772;42.700;23.304;2024-01-15T09:40:43;137.43;;;60.40;;
5499;SDS011;2772;42.700;23.304;2024-01-15T09:43:12;159.30;;;66.37;;
5499;SDS011;2772;42.700;23.304;2024-01-15T09:45:40;162.00;;;66.50;;
5499;SDS011;2772;42.700;23.304;2024-01-15T09:48:08;165.60;;;65.57;;
5499;SDS011;2772;42.700;23.304;2024-01-15T09:50:36;168.20;;;69.07;;
5499;SDS011;2772;42.700;23.304;2024-01-15T09:53:03;159.60;;;67.00;;
5499;SDS011;2772;42.700;23.304;2024-01-15T09:55:31;170.60;;;65.70;;
5499;SDS011;2772;42.700;23.304;2024-01-15T09:57:58;157.70;;;62.07;;
5499;SDS011;2772;42.700;23.304;2024-01-15T10:00:27;158.20;;;67.10;;
5499;SDS011;2772;42.700;23.304;2024-01-15T10:02:55;148.63;;;61.17;;
5499;SDS011;2772;42.700;23.304;2024-01-15T10:05:23;156.20;;;61.90;;
5499;SDS011;2772;42.700;23.304;2024-01-15T10:07:51;134.73;;;55.23;;
5499;SDS011;2772;42.700;23.304;2024-01-15T10:10:19;132.20;;;56.23;;
5499;SDS011;2772;42.700;23.304;2024-01-15T10:12:47;134.30;;;57.10;;
5499;SDS011;2772;42.700;23.304;2024-01-15T10:15:14;126.70;;;50.97;;
5499;SDS011;2772;42.700;23.304;2024-01-15T10:17:42;106.63;;;44.90;;
5499;SDS011;2772;42.700;23.304;2024-01-15T10:20:11;111.27;;;45.97;;
5499;SDS011;2772;42.700;23.304;2024-01-15T10:22:40;114.10;;;43.80;;
5499;SDS011;2772;42.700;23.304;2024-01-15T10:25:11;124.60;;;47.30;;
5499;SDS011;2772;42.700;23.304;2024-01-15T10:27:39;108.17;;;46.37;;
5499;SDS011;2772;42.700;23.304;2024-01-15T10:30:09;102.03;;;44.70;;
5499;SDS011;2772;42.700;23.304;2024-01-15T10:32:38;87.73;;;39.00;;
5499;SDS011;2772;42.700;23.304;2024-01-15T10:35:07;95.13;;;38.40;;
5499;SDS011;2772;42.700;23.304;2024-01-15T10:37:42;83.13;;;36.20;;
5499;SDS011;2772;42.700;23.304;2024-01-15T10:40:09;68.47;;;33.90;;
5499;SDS011;2772;42.700;23.304;2024-01-15T10:42:40;80.63;;;38.73;;
5499;SDS011;2772;42.700;23.304;2024-01-15T10:45:07;91.70;;;41.30;;
5499;SDS011;2772;42.700;23.304;2024-01-15T10:47:35;79.47;;;37.10;;
5499;SDS011;2772;42.700;23.304;2024-01-15T10:50:02;44.20;;;23.47;;
5499;SDS011;2772;42.700;23.304;2024-01-15T10:52:32;73.93;;;34.80;;
5499;SDS011;2772;42.700;23.304;2024-01-15T10:55:00;59.23;;;29.43;;
5499;SDS011;2772;42.700;23.304;2024-01-15T10:57:36;55.20;;;30.30;;
5499;SDS011;2772;42.700;23.304;2024-01-15T11:00:06;65.43;;;33.33;;
5499;SDS011;2772;42.700;23.304;2024-01-15T11:02:40;55.03;;;27.60;;
5499;SDS011;2772;42.700;23.304;2024-01-15T11:05:21;57.03;;;26.50;;
5499;SDS011;2772;42.700;23.304;2024-01-15T11:10:37;57.67;;;29.23;;
5499;SDS011;2772;42.700;23.304;2024-01-15T11:13:20;57.90;;;31.50;;
5499;SDS011;2772;42.700;23.304;2024-01-15T11:15:55;92.17;;;40.10;;
5499;SDS011;2772;42.700;23.304;2024-01-15T11:18:22;87.63;;;32.77;;
5499;SDS011;2772;42.700;23.304;2024-01-15T11:23:53;87.97;;;27.80;;
5499;SDS011;2772;42.700;23.304;2024-01-15T11:26:32;67.97;;;32.93;;
5499;SDS011;2772;42.700;23.304;2024-01-15T11:29:03;63.17;;;30.27;;
5499;SDS011;2772;42.700;23.304;2024-01-15T11:37:16;58.90;;;29.50;;
5499;SDS011;2772;42.700;23.304;2024-01-15T11:39:43;61.43;;;28.33;;
5499;SDS011;2772;42.700;23.304;2024-01-15T11:42:10;58.87;;;25.70;;
5499;SDS011;2772;42.700;23.304;2024-01-15T11:44:39;52.53;;;25.60;;
5499;SDS011;2772;42.700;23.304;2024-01-15T11:47:06;47.63;;;23.03;;
5499;SDS011;2772;42.700;23.304;2024-01-15T11:49:41;40.30;;;21.80;;
5499;SDS011;2772;42.700;23.304;2024-01-15T11:52:30;43.07;;;22.37;;
5499;SDS011;2772;42.700;23.304;2024-01-15T11:55:07;45.77;;;22.53;;
5499;SDS011;2772;42.700;23.304;2024-01-15T11:57:42;50.80;;;22.37;;
5499;SDS011;2772;42.700;23.304;2024-01-15T12:00:13;49.10;;;24.00;;
5499;SDS011;2772;42.700;23.304;2024-01-15T12:02:41;39.43;;;22.00;;
5499;SDS011;2772;42.700;23.304;2024-01-15T12:05:08;46.23;;;21.80;;
5499;SDS011;2772;42.700;23.304;2024-01-15T12:07:37;51.40;;;24.97;;
5499;SDS011;2772;42.700;23.304;2024-01-15T12:10:07;46.10;;;25.67;;
5499;SDS011;2772;42.700;23.304;2024-01-15T12:12:39;54.97;;;25.80;;
5499;SDS011;2772;42.700;23.304;2024-01-15T12:15:25;49.53;;;23.33;;
5499;SDS011;2772;42.700;23.304;2024-01-15T12:17:54;60.63;;;24.37;;
5499;SDS011;2772;42.700;23.304;2024-01-15T12:20:23;65.27;;;24.77;;
5499;SDS011;2772;42.700;23.304;2024-01-15T12:22:50;52.90;;;25.23;;
5499;SDS011;2772;42.700;23.304;2024-01-15T12:25:17;46.70;;;24.70;;
5499;SDS011;2772;42.700;23.304;2024-01-15T12:27:43;53.47;;;25.87;;
5499;SDS011;2772;42.700;23.304;2024-01-15T12:30:11;58.87;;;27.50;;
5499;SDS011;2772;42.700;23.304;2024-01-15T12:32:39;44.03;;;24.70;;
5499;SDS011;2772;42.700;23.304;2024-01-15T12:35:07;45.93;;;24.27;;
5499;SDS011;2772;42.700;23.304;2024-01-15T12:37:35;52.38;;;26.85;;
5499;SDS011;2772;42.700;23.304;2024-01-15T12:40:02;44.73;;;25.20;;
5499;SDS011;2772;42.700;23.304;2024-01-15T12:42:29;51.37;;;25.13;;
5499;SDS011;2772;42.700;23.304;2024-01-15T12:44:56;47.40;;;25.17;;
5499;SDS011;2772;42.700;23.304;2024-01-15T12:47:23;56.67;;;25.13;;
5499;SDS011;2772;42.700;23.304;2024-01-15T12:49:52;58.23;;;25.23;;
5499;SDS011;2772;42.700;23.304;2024-01-15T12:52:20;57.90;;;24.63;;
5499;SDS011;2772;42.700;23.304;2024-01-15T12:54:47;37.70;;;20.13;;
5499;SDS011;2772;42.700;23.304;2024-01-15T12:57:14;49.50;;;21.50;;
5499;SDS011;2772;42.700;23.304;2024-01-15T12:59:41;41.80;;;20.77;;
5499;SDS011;2772;42.700;23.304;2024-01-15T13:02:07;58.73;;;24.87;;
5499;SDS011;2772;42.700;23.304;2024-01-15T13:04:34;48.53;;;22.43;;
5499;SDS011;2772;42.700;23.304;2024-01-15T13:07:02;38.00;;;20.77;;
5499;SDS011;2772;42.700;23.304;2024-01-15T13:09:29;51.53;;;21.27;;
5499;SDS011;2772;42.700;23.304;2024-01-15T13:11:56;36.23;;;18.30;;
5499;SDS011;2772;42.700;23.304;2024-01-15T13:14:23;37.53;;;18.60;;
5499;SDS011;2772;42.700;23.304;2024-01-15T13:16:50;44.77;;;21.43;;
5499;SDS011;2772;42.700;23.304;2024-01-15T13:19:17;43.90;;;24.07;;
5499;SDS011;2772;42.700;23.304;2024-01-15T13:21:44;43.53;;;23.70;;
5499;SDS011;2772;42.700;23.304;2024-01-15T13:24:12;52.50;;;22.40;;
5499;SDS011;2772;42.700;23.304;2024-01-15T13:26:39;38.83;;;20.23;;
5499;SDS011;2772;42.700;23.304;2024-01-15T13:29:06;60.37;;;22.03;;
5499;SDS011;2772;42.700;23.304;2024-01-15T13:31:33;47.93;;;23.57;;
5499;SDS011;2772;42.700;23.304;2024-01-15T13:34:00;39.17;;;19.80;;
5499;SDS011;2772;42.700;23.304;2024-01-15T13:36:27;47.07;;;23.10;;
5499;SDS011;2772;42.700;23.304;2024-01-15T13:38:54;37.10;;;18.83;;
5499;SDS011;2772;42.700;23.304;2024-01-15T13:41:24;32.20;;;18.50;;
5499;SDS011;2772;42.700;23.304;2024-01-15T13:43:53;33.93;;;18.00;;
5499;SDS011;2772;42.700;23.304;2024-01-15T13:46:25;36.57;;;19.50;;
5499;SDS011;2772;42.700;23.304;2024-01-15T13:48:52;36.63;;;19.63;;
5499;SDS011;2772;42.700;23.304;2024-01-15T13:51:21;60.57;;;25.20;;
5499;SDS011;2772;42.700;23.304;2024-01-15T13:53:48;61.17;;;24.57;;
5499;SDS011;2772;42.700;23.304;2024-01-15T13:56:15;56.77;;;26.03;;
5499;SDS011;2772;42.700;23.304;2024-01-15T13:58:43;49.83;;;24.70;;
5499;SDS011;2772;42.700;23.304;2024-01-15T14:01:10;54.53;;;24.93;;
5499;SDS011;2772;42.700;23.304;2024-01-15T14:03:37;64.53;;;26.93;;
5499;SDS011;2772;42.700;23.304;2024-01-15T14:06:04;54.00;;;27.00;;
5499;SDS011;2772;42.700;23.304;2024-01-15T14:08:34;55.37;;;26.13;;
5499;SDS011;2772;42.700;23.304;2024-01-15T14:11:00;57.30;;;27.20;;
5499;SDS011;2772;42.700;23.304;2024-01-15T14:13:27;61.57;;;26.43;;
5499;SDS011;2772;42.700;23.304;2024-01-15T14:15:55;62.00;;;24.17;;
5499;SDS011;2772;42.700;23.304;2024-01-15T14:18:22;51.23;;;24.00;;
5499;SDS011;2772;42.700;23.304;2024-01-15T14:20:49;50.70;;;26.43;;
5499;SDS011;2772;42.700;23.304;2024-01-15T14:23:15;54.30;;;24.00;;
5499;SDS011;2772;42.700;23.304;2024-01-15T14:25:42;57.20;;;25.93;;
5499;SDS011;2772;42.700;23.304;2024-01-15T14:28:09;52.00;;;25.10;;
5499;SDS011;2772;42.700;23.304;2024-01-15T14:30:35;44.20;;;22.03;;
5499;SDS011;2772;42.700;23.304;2024-01-15T14:33:04;50.77;;;24.07;;
5499;SDS011;2772;42.700;23.304;2024-01-15T14:35:30;53.53;;;26.00;;
5499;SDS011;2772;42.700;23.304;2024-01-15T14:37:57;57.67;;;24.87;;
5499;SDS011;2772;42.700;23.304;2024-01-15T14:40:24;55.83;;;26.87;;